Time;durP1;ratioP1;P1;durP2;ratioP2;P2;SDS_P1;SDS_P2;PMS_P1;PMS_P2;Temp;Humidity;BMP_temperature;BMP_pressure;BME280_temperature;BME280_humidity;BME280_pressure;Samples;Min_cycle;Max_cycle;Signal;HPM_P1;HPM_P2
2023/08/31 00:00:51;;;;;;;7.18;3.00;;;;;;;;;;5029157;28;20198;-72
2023/08/31 00:03:16;;;;;;;9.30;3.70;;;;;;;;;;5026864;28;20186;-72
2023/08/31 00:05:43;;;;;;;5.80;2.63;;;;;;;;;;5029961;28;20198;-72
2023/08/31 00:08:09;;;;;;;7.85;3.58;;;;;;;;;;5032059;28;20287;-71
2023/08/31 00:10:35;;;;;;;4.80;2.63;;;;;;;;;;5030324;28;20221;-72
2023/08/31 00:13:04;;;;;;;3.03;2.38;;;;;;;;;;5013815;28;20195;-72
2023/08/31 00:15:32;;;;;;;3.00;2.40;;;;;;;;;;5031210;28;20190;-72
2023/08/31 00:17:58;;;;;;;7.28;2.88;;;;;;;;;;5030651;28;20210;-72
2023/08/31 00:20:24;;;;;;;7.50;2.70;;;;;;;;;;5031607;28;20259;-71
2023/08/31 00:22:49;;;;;;;6.18;2.80;;;;;;;;;;5031541;28;20300;-72
2023/08/31 00:25:15;;;;;;;4.15;2.70;;;;;;;;;;4994480;28;20217;-72
2023/08/31 00:27:43;;;;;;;7.30;2.65;;;;;;;;;;5007065;28;20287;-72
2023/08/31 00:30:11;;;;;;;6.65;2.58;;;;;;;;;;5026702;28;20601;-72
2023/08/31 00:32:39;;;;;;;11.43;3.33;;;;;;;;;;5018486;28;20659;-72
2023/08/31 00:35:04;;;;;;;4.32;2.70;;;;;;;;;;5022377;28;20182;-72
2023/08/31 00:37:30;;;;;;;4.88;2.80;;;;;;;;;;5029199;28;20209;-72
2023/08/31 00:39:55;;;;;;;5.22;2.78;;;;;;;;;;5031617;28;20265;-72
2023/08/31 00:42:21;;;;;;;6.45;2.53;;;;;;;;;;5014150;28;20669;-72
2023/08/31 00:44:47;;;;;;;6.68;3.35;;;;;;;;;;5030510;28;20328;-71
2023/08/31 00:47:14;;;;;;;4.00;2.58;;;;;;;;;;5025175;28;20285;-71
2023/08/31 00:49:40;;;;;;;6.72;2.90;;;;;;;;;;5029362;28;20224;-70
2023/08/31 00:52:06;;;;;;;6.78;2.72;;;;;;;;;;5027191;28;20193;-71
2023/08/31 00:54:32;;;;;;;3.53;2.45;;;;;;;;;;5025184;28;20190;-72
2023/08/31 00:56:57;;;;;;;4.43;2.42;;;;;;;;;;5024531;28;20612;-72
2023/08/31 00:59:24;;;;;;;5.07;2.72;;;;;;;;;;5027463;28;20186;-73
2023/08/31 01:02:20;;;;;;;4.53;3.05;;;;;;;;;;5025184;28;20692;-71
2023/08/31 01:04:54;;;;;;;7.30;2.60;;;;;;;;;;4997805;28;20199;-72
2023/08/31 01:07:33;;;;;;;6.50;2.63;;;;;;;;;;5022187;28;20202;-72
2023/08/31 01:10:19;;;;;;;4.57;2.53;;;;;;;;;;5030497;28;20660;-72
2023/08/31 01:12:58;;;;;;;5.75;2.60;;;;;;;;;;5026114;28;20255;-72
2023/08/31 01:15:25;;;;;;;6.95;2.80;;;;;;;;;;5030225;28;20392;-72
2023/08/31 01:17:54;;;;;;;4.53;2.50;;;;;;;;;;5023474;28;20227;-71
2023/08/31 01:20:28;;;;;;;4.07;2.40;;;;;;;;;;5023912;28;20304;-71
2023/08/31 01:23:05;;;;;;;4.38;2.38;;;;;;;;;;5023041;28;20208;-71
2023/08/31 01:25:32;;;;;;;4.65;2.55;;;;;;;;;;5031167;28;20246;-71
2023/08/31 01:27:59;;;;;;;5.68;2.47;;;;;;;;;;5022667;28;20254;-71
2023/08/31 01:30:24;;;;;;;3.85;2.45;;;;;;;;;;5030235;28;20190;-72
2023/08/31 01:32:49;;;;;;;4.43;2.55;;;;;;;;;;5027486;28;20272;-71
2023/08/31 01:35:17;;;;;;;4.50;2.60;;;;;;;;;;5031805;28;20252;-71
2023/08/31 01:37:50;;;;;;;6.40;2.70;;;;;;;;;;5021354;28;20245;-71
2023/08/31 01:40:23;;;;;;;4.93;2.50;;;;;;;;;;5018473;28;20194;-71
2023/08/31 01:42:49;;;;;;;4.20;2.47;;;;;;;;;;5021812;28;20232;-72
2023/08/31 01:45:20;;;;;;;3.83;2.55;;;;;;;;;;5032560;28;20325;-71
2023/08/31 01:47:46;;;;;;;3.92;2.78;;;;;;;;;;5023674;28;20297;-71
2023/08/31 01:50:11;;;;;;;6.10;2.95;;;;;;;;;;5028510;28;20202;-71
2023/08/31 01:52:37;;;;;;;3.80;2.85;;;;;;;;;;5025415;28;20245;-72
2023/08/31 01:55:03;;;;;;;4.13;2.90;;;;;;;;;;5033872;28;20182;-71
2023/08/31 01:57:28;;;;;;;4.35;3.10;;;;;;;;;;5026579;28;20270;-71
2023/08/31 01:59:54;;;;;;;4.68;2.88;;;;;;;;;;5031809;28;20216;-70
2023/08/31 02:02:19;;;;;;;4.53;3.47;;;;;;;;;;5030154;28;20281;-71
2023/08/31 02:04:45;;;;;;;3.63;3.20;;;;;;;;;;5019877;28;20199;-70
2023/08/31 02:07:11;;;;;;;5.47;3.58;;;;;;;;;;5027309;28;20193;-71
2023/08/31 02:09:36;;;;;;;6.28;3.38;;;;;;;;;;5028411;28;20194;-71
2023/08/31 02:12:02;;;;;;;4.50;3.58;;;;;;;;;;5020755;28;20607;-72
2023/08/31 02:14:29;;;;;;;5.28;3.90;;;;;;;;;;5026694;28;20194;-70
2023/08/31 02:16:55;;;;;;;5.90;3.92;;;;;;;;;;5021837;28;20269;-71
2023/08/31 02:19:20;;;;;;;7.35;4.90;;;;;;;;;;5014248;28;20202;-71
2023/08/31 02:21:46;;;;;;;6.60;4.32;;;;;;;;;;5024602;28;20365;-70
2023/08/31 02:24:14;;;;;;;8.70;5.43;;;;;;;;;;5033339;28;20206;-70
2023/08/31 02:26:39;;;;;;;10.50;5.20;;;;;;;;;;5019064;28;20343;-70
2023/08/31 02:29:05;;;;;;;8.60;4.72;;;;;;;;;;5031195;28;20801;-70
2023/08/31 02:31:30;;;;;;;7.95;5.47;;;;;;;;;;5032779;28;20226;-70
2023/08/31 02:33:56;;;;;;;10.50;5.70;;;;;;;;;;5029180;28;20670;-71
2023/08/31 02:36:21;;;;;;;8.13;5.88;;;;;;;;;;5033455;28;20182;-70
2023/08/31 02:38:46;;;;;;;7.53;5.90;;;;;;;;;;5021957;28;20186;-71
2023/08/31 02:41:12;;;;;;;8.35;6.15;;;;;;;;;;5031447;28;20194;-71
2023/08/31 02:43:39;;;;;;;9.80;6.45;;;;;;;;;;5023214;28;20276;-72
2023/08/31 02:46:04;;;;;;;9.20;6.43;;;;;;;;;;5023863;28;20288;-71
2023/08/31 02:48:30;;;;;;;11.35;7.63;;;;;;;;;;5000381;28;20199;-70
2023/08/31 02:51:00;;;;;;;10.15;7.10;;;;;;;;;;5026226;28;20182;-71
2023/08/31 02:53:27;;;;;;;11.05;7.38;;;;;;;;;;5025146;28;20190;-71
2023/08/31 02:55:52;;;;;;;9.50;7.82;;;;;;;;;;5031947;28;20202;-71
2023/08/31 02:58:19;;;;;;;10.30;8.30;;;;;;;;;;5022809;28;20241;-71
2023/08/31 03:00:47;;;;;;;13.02;8.88;;;;;;;;;;5023481;28;20201;-71
2023/08/31 03:03:13;;;;;;;10.73;8.27;;;;;;;;;;5025505;28;20673;-72
2023/08/31 03:05:38;;;;;;;12.13;9.15;;;;;;;;;;5026301;28;20244;-71
2023/08/31 03:08:04;;;;;;;12.00;9.93;;;;;;;;;;5031331;28;20277;-70
2023/08/31 03:10:30;;;;;;;15.27;9.82;;;;;;;;;;5031035;28;20648;-71
2023/08/31 03:12:55;;;;;;;14.02;9.25;;;;;;;;;;5023963;28;20659;-71
2023/08/31 03:15:20;;;;;;;14.27;10.25;;;;;;;;;;5026738;28;20190;-71
2023/08/31 03:17:46;;;;;;;14.82;10.00;;;;;;;;;;5015953;28;20626;-71
2023/08/31 03:20:11;;;;;;;14.18;9.63;;;;;;;;;;5030772;28;20295;-71
2023/08/31 03:22:36;;;;;;;10.18;8.93;;;;;;;;;;5029690;28;20174;-71
2023/08/31 03:25:02;;;;;;;14.05;9.27;;;;;;;;;;5034511;28;20278;-71
2023/08/31 03:27:27;;;;;;;13.05;9.32;;;;;;;;;;5024371;28;20186;-72
2023/08/31 03:29:53;;;;;;;12.38;9.23;;;;;;;;;;5024621;28;20190;-72
2023/08/31 03:32:19;;;;;;;15.75;10.52;;;;;;;;;;5030154;28;20252;-71
2023/08/31 03:34:44;;;;;;;11.35;9.15;;;;;;;;;;5026861;28;20186;-71
2023/08/31 03:37:10;;;;;;;16.15;10.70;;;;;;;;;;5032476;28;20200;-71
2023/08/31 03:39:36;;;;;;;11.85;9.52;;;;;;;;;;5024595;28;20171;-71
2023/08/31 03:42:02;;;;;;;13.77;9.57;;;;;;;;;;5018130;28;20484;-71
2023/08/31 03:44:27;;;;;;;11.60;8.20;;;;;;;;;;5023867;28;20648;-71
2023/08/31 03:46:53;;;;;;;12.38;8.95;;;;;;;;;;5030712;28;20325;-71
2023/08/31 03:49:18;;;;;;;15.52;9.02;;;;;;;;;;5026885;28;20289;-71
2023/08/31 03:51:44;;;;;;;11.40;8.15;;;;;;;;;;5030008;28;20264;-71
2023/08/31 03:54:09;;;;;;;9.52;7.88;;;;;;;;;;4997205;28;20208;-71
2023/08/31 03:56:34;;;;;;;9.70;7.50;;;;;;;;;;5041759;28;20585;-70
2023/08/31 03:59:03;;;;;;;12.15;8.32;;;;;;;;;;5030812;28;20202;-71
2023/08/31 04:01:29;;;;;;;15.57;8.27;;;;;;;;;;5030825;28;20186;-70
2023/08/31 04:03:54;;;;;;;13.75;8.55;;;;;;;;;;5023599;28;20553;-70
2023/08/31 04:06:19;;;;;;;15.10;9.38;;;;;;;;;;5029479;28;20210;-71
2023/08/31 04:08:45;;;;;;;13.52;9.50;;;;;;;;;;5023825;28;20263;-72
2023/08/31 04:11:10;;;;;;;12.90;9.63;;;;;;;;;;5019290;28;20195;-71
2023/08/31 04:13:35;;;;;;;14.00;9.82;;;;;;;;;;5020078;28;20514;-71
2023/08/31 04:16:01;;;;;;;15.40;10.82;;;;;;;;;;5030771;28;20277;-71
2023/08/31 04:18:26;;;;;;;17.98;11.10;;;;;;;;;;5023733;28;20233;-72
2023/08/31 04:20:53;;;;;;;14.68;10.45;;;;;;;;;;5030342;28;20244;-72
2023/08/31 04:23:19;;;;;;;14.30;11.02;;;;;;;;;;5030307;28;20308;-71
2023/08/31 04:25:47;;;;;;;15.90;11.30;;;;;;;;;;5027396;28;20214;-72
2023/08/31 04:28:12;;;;;;;17.42;12.40;;;;;;;;;;5014687;28;20194;-71
2023/08/31 04:30:39;;;;;;;18.45;12.75;;;;;;;;;;5027878;28;20190;-71
2023/08/31 04:33:06;;;;;;;18.33;13.15;;;;;;;;;;5029822;28;20191;-71
2023/08/31 04:35:32;;;;;;;20.55;14.48;;;;;;;;;;5031137;28;20190;-71
2023/08/31 04:37:58;;;;;;;19.30;14.00;;;;;;;;;;5029698;28;20182;-71
2023/08/31 04:40:26;;;;;;;20.75;13.57;;;;;;;;;;5013557;28;20232;-71
2023/08/31 04:42:51;;;;;;;16.83;13.20;;;;;;;;;;5030017;28;20202;-71
2023/08/31 04:45:17;;;;;;;20.95;14.10;;;;;;;;;;5027706;28;20605;-71
2023/08/31 04:47:44;;;;;;;16.58;12.63;;;;;;;;;;5029032;28;20217;-71
2023/08/31 04:50:09;;;;;;;20.30;14.18;;;;;;;;;;5017970;28;20194;-71
2023/08/31 04:52:35;;;;;;;16.80;12.73;;;;;;;;;;5001434;28;20206;-71
2023/08/31 04:55:01;;;;;;;17.75;13.90;;;;;;;;;;5028138;28;20213;-71
2023/08/31 04:57:26;;;;;;;18.08;14.13;;;;;;;;;;5005022;28;20228;-70
2023/08/31 04:59:52;;;;;;;17.40;13.25;;;;;;;;;;5044616;28;20189;-72
2023/08/31 05:02:18;;;;;;;17.17;13.07;;;;;;;;;;5021010;28;20186;-72
2023/08/31 05:04:44;;;;;;;18.92;12.80;;;;;;;;;;5025188;28;20190;-72
2023/08/31 05:07:09;;;;;;;18.02;13.07;;;;;;;;;;5030160;28;20221;-72
2023/08/31 05:09:35;;;;;;;16.75;12.68;;;;;;;;;;5026888;28;20198;-72
2023/08/31 05:12:03;;;;;;;15.52;11.95;;;;;;;;;;5034780;28;20194;-72
2023/08/31 05:14:29;;;;;;;18.27;12.88;;;;;;;;;;5029761;28;20276;-71
2023/08/31 05:16:55;;;;;;;16.98;11.82;;;;;;;;;;5030714;28;20298;-71
2023/08/31 05:19:20;;;;;;;16.63;12.50;;;;;;;;;;5032759;28;20377;-71
2023/08/31 05:21:46;;;;;;;15.43;11.80;;;;;;;;;;5033579;28;20193;-71
2023/08/31 05:24:11;;;;;;;16.58;12.13;;;;;;;;;;5025843;28;20189;-71
2023/08/31 05:26:37;;;;;;;16.35;10.60;;;;;;;;;;5034134;28;20745;-71
2023/08/31 05:29:04;;;;;;;13.98;10.80;;;;;;;;;;5033358;28;20190;-72
2023/08/31 05:31:29;;;;;;;13.68;11.00;;;;;;;;;;5031840;28;20251;-71
2023/08/31 05:33:55;;;;;;;16.45;10.90;;;;;;;;;;5008073;28;20280;-71
2023/08/31 05:36:20;;;;;;;11.88;9.77;;;;;;;;;;5032948;28;20196;-71
2023/08/31 05:38:46;;;;;;;14.43;9.73;;;;;;;;;;5030588;28;20196;-72
2023/08/31 05:41:11;;;;;;;16.67;10.05;;;;;;;;;;5034412;28;20688;-71
2023/08/31 05:43:39;;;;;;;12.13;8.80;;;;;;;;;;5026958;28;20191;-70
2023/08/31 05:46:06;;;;;;;14.05;9.30;;;;;;;;;;5025471;28;20230;-72
2023/08/31 05:48:31;;;;;;;11.82;8.15;;;;;;;;;;5031795;28;20226;-71
2023/08/31 05:50:57;;;;;;;12.02;9.25;;;;;;;;;;5022654;28;20194;-71
2023/08/31 05:53:22;;;;;;;13.43;8.60;;;;;;;;;;5028800;28;20681;-71
2023/08/31 05:55:48;;;;;;;12.07;8.18;;;;;;;;;;5024096;28;20693;-73
2023/08/31 05:58:14;;;;;;;12.57;8.10;;;;;;;;;;5020488;28;20187;-72
2023/08/31 06:00:39;;;;;;;10.10;7.68;;;;;;;;;;5031979;28;20313;-71
2023/08/31 06:03:05;;;;;;;12.65;7.82;;;;;;;;;;5024716;28;20190;-71
2023/08/31 06:05:31;;;;;;;11.93;8.27;;;;;;;;;;5032481;28;20206;-70
2023/08/31 06:07:57;;;;;;;11.30;8.60;;;;;;;;;;5033785;28;20190;-71
2023/08/31 06:10:23;;;;;;;10.15;7.60;;;;;;;;;;5030881;28;20194;-71
2023/08/31 06:12:50;;;;;;;14.25;8.20;;;;;;;;;;5032391;28;20188;-71
2023/08/31 06:15:16;;;;;;;9.75;8.18;;;;;;;;;;5032981;28;20616;-71
2023/08/31 06:17:41;;;;;;;10.93;8.27;;;;;;;;;;5028693;28;20615;-72
2023/08/31 06:20:08;;;;;;;14.60;8.02;;;;;;;;;;5030489;28;20247;-71
2023/08/31 06:22:33;;;;;;;13.05;8.43;;;;;;;;;;5028529;28;20178;-70
2023/08/31 06:24:59;;;;;;;14.05;8.90;;;;;;;;;;5030426;28;20535;-72
2023/08/31 06:27:25;;;;;;;10.85;9.27;;;;;;;;;;5027905;28;20366;-72
2023/08/31 06:29:50;;;;;;;15.38;9.52;;;;;;;;;;5027915;28;20281;-72
2023/08/31 06:32:17;;;;;;;13.43;9.75;;;;;;;;;;5028202;28;20622;-71
2023/08/31 06:34:42;;;;;;;14.38;10.70;;;;;;;;;;5024765;28;20198;-72
2023/08/31 06:37:07;;;;;;;15.25;11.07;;;;;;;;;;5033806;28;20666;-70
2023/08/31 06:39:33;;;;;;;12.95;10.30;;;;;;;;;;5004875;28;20260;-72
2023/08/31 06:41:58;;;;;;;15.27;11.32;;;;;;;;;;5033496;28;20186;-70
2023/08/31 06:44:24;;;;;;;15.23;11.40;;;;;;;;;;5031549;28;20254;-71
2023/08/31 06:46:49;;;;;;;16.73;11.07;;;;;;;;;;5031918;28;20226;-70
2023/08/31 06:49:14;;;;;;;12.45;10.15;;;;;;;;;;5028276;28;20560;-72
2023/08/31 06:51:40;;;;;;;13.00;9.43;;;;;;;;;;5031392;28;20271;-72
2023/08/31 06:54:06;;;;;;;12.80;9.75;;;;;;;;;;5030814;28;20248;-72
2023/08/31 06:56:35;;;;;;;13.48;9.82;;;;;;;;;;5032273;28;20649;-72
2023/08/31 06:59:00;;;;;;;13.25;9.35;;;;;;;;;;5026842;28;20237;-72
2023/08/31 07:01:27;;;;;;;13.88;8.82;;;;;;;;;;5028662;28;20665;-71
2023/08/31 07:03:53;;;;;;;12.10;8.25;;;;;;;;;;5022857;28;20198;-71
2023/08/31 07:06:18;;;;;;;13.02;8.43;;;;;;;;;;5031211;28;20525;-70
2023/08/31 07:08:45;;;;;;;9.20;7.85;;;;;;;;;;5030320;28;20241;-72
2023/08/31 07:11:11;;;;;;;14.95;8.10;;;;;;;;;;5023739;28;20606;-70
2023/08/31 07:13:36;;;;;;;13.13;7.90;;;;;;;;;;5018694;28;20182;-71
2023/08/31 07:16:02;;;;;;;12.50;7.07;;;;;;;;;;5026055;28;20236;-71
2023/08/31 07:18:28;;;;;;;9.27;6.70;;;;;;;;;;5027027;28;20206;-71
2023/08/31 07:20:53;;;;;;;11.13;5.90;;;;;;;;;;5030559;28;20722;-71
2023/08/31 07:23:18;;;;;;;8.40;5.93;;;;;;;;;;5032094;28;20217;-71
2023/08/31 07:25:44;;;;;;;11.82;5.20;;;;;;;;;;5024459;28;20721;-72
2023/08/31 07:28:10;;;;;;;8.88;5.28;;;;;;;;;;5029257;28;20292;-71
2023/08/31 07:30:36;;;;;;;7.30;4.28;;;;;;;;;;5028442;28;20182;-71
2023/08/31 07:33:03;;;;;;;9.90;4.55;;;;;;;;;;5028540;28;20192;-72
2023/08/31 07:35:29;;;;;;;8.88;4.63;;;;;;;;;;5020715;28;20213;-70
2023/08/31 07:37:54;;;;;;;9.63;5.15;;;;;;;;;;5031942;28;20190;-71
2023/08/31 07:40:20;;;;;;;7.35;4.28;;;;;;;;;;5031557;28;20636;-71
2023/08/31 07:42:45;;;;;;;3.78;3.30;;;;;;;;;;5026083;28;20273;-71
2023/08/31 07:45:11;;;;;;;8.15;4.03;;;;;;;;;;5018573;28;20307;-72
2023/08/31 07:47:36;;;;;;;8.25;4.07;;;;;;;;;;5024161;28;20340;-72
2023/08/31 07:50:02;;;;;;;7.05;3.42;;;;;;;;;;5028886;28;20200;-73
2023/08/31 07:52:27;;;;;;;9.48;3.50;;;;;;;;;;5029576;28;20190;-72
2023/08/31 07:54:53;;;;;;;6.20;3.35;;;;;;;;;;5031313;28;20198;-71
2023/08/31 07:57:19;;;;;;;5.63;2.92;;;;;;;;;;5022756;28;20196;-71
2023/08/31 07:59:44;;;;;;;5.80;3.00;;;;;;;;;;5031182;28;20182;-72
2023/08/31 08:02:10;;;;;;;5.60;3.00;;;;;;;;;;5029849;28;20194;-71
2023/08/31 08:04:35;;;;;;;7.43;2.72;;;;;;;;;;5024341;28;20186;-70
2023/08/31 08:07:01;;;;;;;4.93;2.60;;;;;;;;;;5017137;28;20202;-72
2023/08/31 08:09:26;;;;;;;6.63;2.40;;;;;;;;;;5025012;28;20351;-71
2023/08/31 08:11:51;;;;;;;4.68;2.63;;;;;;;;;;5015342;28;20186;-71
2023/08/31 08:14:17;;;;;;;7.47;2.80;;;;;;;;;;5029619;28;20192;-70
2023/08/31 08:16:42;;;;;;;4.97;2.65;;;;;;;;;;5029910;28;20289;-72
2023/08/31 08:19:08;;;;;;;7.13;3.22;;;;;;;;;;5028877;28;20252;-70
2023/08/31 08:21:34;;;;;;;5.15;2.83;;;;;;;;;;5013767;28;20333;-71
2023/08/31 08:24:00;;;;;;;6.30;2.92;;;;;;;;;;5022932;28;20208;-71
2023/08/31 08:26:25;;;;;;;5.75;3.25;;;;;;;;;;5003714;28;20752;-71
2023/08/31 08:28:51;;;;;;;4.18;2.67;;;;;;;;;;5030536;28;20238;-71
2023/08/31 08:31:17;;;;;;;7.65;2.95;;;;;;;;;;5023285;28;20193;-71
2023/08/31 08:33:42;;;;;;;4.57;2.50;;;;;;;;;;5030208;28;20571;-71
2023/08/31 08:36:08;;;;;;;4.35;2.50;;;;;;;;;;5022336;28;20212;-71
2023/08/31 08:38:34;;;;;;;6.82;2.63;;;;;;;;;;5018065;28;20190;-71
2023/08/31 08:41:07;;;;;;;5.63;2.58;;;;;;;;;;5030967;28;20193;-72
2023/08/31 08:43:33;;;;;;;6.82;2.67;;;;;;;;;;5027898;28;20285;-72
2023/08/31 08:46:04;;;;;;;5.45;2.50;;;;;;;;;;4329203;28;10000176;-72
2023/08/31 08:48:30;;;;;;;4.78;2.63;;;;;;;;;;5025855;28;20661;-71
2023/08/31 08:50:56;;;;;;;5.55;2.22;;;;;;;;;;5026223;28;20228;-72
2023/08/31 08:53:22;;;;;;;5.05;2.15;;;;;;;;;;5005030;28;20190;-72
2023/08/31 08:55:47;;;;;;;5.30;2.50;;;;;;;;;;5027140;28;20234;-72
2023/08/31 08:58:12;;;;;;;5.22;2.58;;;;;;;;;;5026285;28;20281;-72
2023/08/31 09:00:40;;;;;;;5.38;2.35;;;;;;;;;;5025023;28;20194;-72
2023/08/31 09:03:05;;;;;;;7.90;3.03;;;;;;;;;;5027139;28;20190;-71
2023/08/31 09:05:34;;;;;;;6.78;3.15;;;;;;;;;;5026760;28;20206;-70
2023/08/31 09:08:03;;;;;;;5.35;2.72;;;;;;;;;;5025151;28;20190;-72
2023/08/31 09:10:40;;;;;;;5.82;2.58;;;;;;;;;;5024996;28;20209;-73
2023/08/31 09:13:08;;;;;;;4.47;2.85;;;;;;;;;;5027878;28;20629;-72
2023/08/31 09:15:39;;;;;;;5.50;2.08;;;;;;;;;;5018934;28;20190;-72
2023/08/31 09:18:05;;;;;;;9.23;2.53;;;;;;;;;;5027090;28;20221;-71
2023/08/31 09:20:30;;;;;;;4.97;2.47;;;;;;;;;;5019426;28;20194;-71
2023/08/31 09:22:56;;;;;;;4.47;2.05;;;;;;;;;;5016616;28;20199;-71
2023/08/31 09:25:21;;;;;;;5.05;2.25;;;;;;;;;;5026125;28;20214;-71
2023/08/31 09:27:48;;;;;;;7.55;2.50;;;;;;;;;;5029755;28;20610;-72
2023/08/31 09:30:13;;;;;;;5.97;1.80;;;;;;;;;;5022603;28;20623;-71
2023/08/31 09:32:41;;;;;;;2.85;1.80;;;;;;;;;;5030749;28;20247;-71
2023/08/31 09:35:11;;;;;;;4.80;2.10;;;;;;;;;;5029428;28;20202;-72
2023/08/31 09:37:36;;;;;;;3.60;1.73;;;;;;;;;;5025944;28;20195;-70
2023/08/31 09:40:03;;;;;;;4.07;1.90;;;;;;;;;;5026556;28;20191;-72
2023/08/31 09:42:38;;;;;;;5.68;1.70;;;;;;;;;;5046653;28;20186;-72
2023/08/31 09:45:04;;;;;;;3.28;1.77;;;;;;;;;;5031236;28;20330;-71
2023/08/31 09:47:30;;;;;;;3.80;1.92;;;;;;;;;;5019646;28;20672;-70
2023/08/31 09:49:56;;;;;;;6.82;2.10;;;;;;;;;;5027792;28;20690;-72
2023/08/31 09:52:23;;;;;;;7.00;1.95;;;;;;;;;;5017644;28;20623;-71
2023/08/31 09:54:51;;;;;;;5.03;1.50;;;;;;;;;;5025495;28;20621;-73
2023/08/31 09:57:17;;;;;;;3.50;1.15;;;;;;;;;;5019602;28;20186;-72
2023/08/31 09:59:43;;;;;;;2.85;0.95;;;;;;;;;;5023916;28;20245;-72
2023/08/31 10:02:11;;;;;;;4.30;1.05;;;;;;;;;;5016424;28;20209;-72
2023/08/31 10:04:38;;;;;;;5.60;1.33;;;;;;;;;;5022312;28;20201;-71
2023/08/31 10:07:05;;;;;;;2.53;1.20;;;;;;;;;;5024879;28;20214;-72
2023/08/31 10:09:31;;;;;;;5.82;1.50;;;;;;;;;;5040961;28;20225;-73
2023/08/31 10:11:58;;;;;;;3.85;1.02;;;;;;;;;;5022360;28;20218;-72
2023/08/31 10:14:23;;;;;;;4.22;1.30;;;;;;;;;;5034173;28;20186;-73
2023/08/31 10:16:52;;;;;;;2.50;0.98;;;;;;;;;;5031121;28;20192;-73
2023/08/31 10:19:18;;;;;;;4.70;1.73;;;;;;;;;;5010982;28;20653;-72
2023/08/31 10:21:44;;;;;;;4.18;1.13;;;;;;;;;;5031757;28;20201;-71
2023/08/31 10:24:09;;;;;;;5.80;1.30;;;;;;;;;;5033524;28;20189;-72
2023/08/31 10:26:35;;;;;;;3.10;1.00;;;;;;;;;;5032983;28;20209;-72
2023/08/31 10:29:02;;;;;;;6.22;1.67;;;;;;;;;;5033269;28;20194;-71
2023/08/31 10:31:32;;;;;;;5.28;1.45;;;;;;;;;;5012866;28;20213;-73
2023/08/31 10:34:09;;;;;;;4.60;1.42;;;;;;;;;;5032549;28;20186;-75
2023/08/31 10:36:36;;;;;;;3.42;1.40;;;;;;;;;;5032736;28;20186;-70
2023/08/31 10:39:12;;;;;;;6.00;1.63;;;;;;;;;;5032288;28;20197;-71
2023/08/31 10:41:38;;;;;;;5.88;1.63;;;;;;;;;;5023832;28;20536;-71
2023/08/31 10:44:18;;;;;;;5.97;1.63;;;;;;;;;;5031629;28;20240;-72
2023/08/31 10:46:43;;;;;;;4.00;1.40;;;;;;;;;;5025671;28;20220;-72
2023/08/31 10:49:09;;;;;;;5.60;1.00;;;;;;;;;;5023395;28;20186;-72
2023/08/31 10:51:34;;;;;;;4.53;0.85;;;;;;;;;;5030947;28;20257;-72
2023/08/31 10:54:26;;;;;;;4.85;1.30;;;;;;;;;;5028545;28;20185;-71
2023/08/31 10:56:51;;;;;;;5.13;0.93;;;;;;;;;;5037555;28;20206;-70
2023/08/31 10:59:17;;;;;;;2.28;0.90;;;;;;;;;;5013090;28;20214;-72
2023/08/31 11:02:00;;;;;;;3.28;1.02;;;;;;;;;;5025320;28;20190;-72
2023/08/31 11:04:27;;;;;;;2.83;1.13;;;;;;;;;;4673220;28;10000111;-73
2023/08/31 11:07:31;;;;;;;5.78;1.38;;;;;;;;;;5032811;28;20205;-71
2023/08/31 11:10:29;;;;;;;4.28;1.33;;;;;;;;;;4980149;28;20235;-72
2023/08/31 11:12:57;;;;;;;8.10;1.40;;;;;;;;;;4967454;28;20241;-71
2023/08/31 11:15:25;;;;;;;4.28;1.25;;;;;;;;;;4993499;28;20243;-71
2023/08/31 11:17:52;;;;;;;3.97;0.90;;;;;;;;;;5027645;28;20272;-72
2023/08/31 11:20:18;;;;;;;4.90;1.08;;;;;;;;;;5007790;28;20225;-71
2023/08/31 11:22:49;;;;;;;4.38;0.93;;;;;;;;;;5009453;28;20845;-71
2023/08/31 11:25:16;;;;;;;2.63;0.57;;;;;;;;;;5026302;28;20197;-72
2023/08/31 11:27:52;;;;;;;3.78;0.90;;;;;;;;;;5027322;28;20194;-71
2023/08/31 11:30:18;;;;;;;2.88;0.85;;;;;;;;;;5009274;28;20286;-73
2023/08/31 11:32:47;;;;;;;4.20;0.77;;;;;;;;;;5038880;28;20252;-72
2023/08/31 11:35:16;;;;;;;1.13;0.60;;;;;;;;;;5024256;28;20268;-72
2023/08/31 11:37:42;;;;;;;6.45;1.02;;;;;;;;;;5026773;28;20186;-72
2023/08/31 11:40:08;;;;;;;2.10;0.65;;;;;;;;;;5029132;28;20275;-71
2023/08/31 11:42:34;;;;;;;6.18;1.23;;;;;;;;;;5020643;28;20189;-73
2023/08/31 11:45:00;;;;;;;3.75;1.50;;;;;;;;;;5030502;28;20218;-74
2023/08/31 11:47:25;;;;;;;1.92;0.85;;;;;;;;;;5023656;28;20697;-73
2023/08/31 11:49:51;;;;;;;5.70;0.90;;;;;;;;;;5032310;28;20260;-73
2023/08/31 11:52:17;;;;;;;4.50;1.50;;;;;;;;;;5025703;28;20232;-74
2023/08/31 11:54:43;;;;;;;5.60;1.30;;;;;;;;;;5030896;28;20248;-72
2023/08/31 11:57:09;;;;;;;4.22;1.15;;;;;;;;;;5022936;28;20198;-72
2023/08/31 11:59:36;;;;;;;7.03;1.08;;;;;;;;;;5034772;28;20222;-75
2023/08/31 12:02:06;;;;;;;3.00;0.90;;;;;;;;;;5014449;28;20917;-74
2023/08/31 12:04:32;;;;;;;6.82;1.30;;;;;;;;;;5014603;28;20186;-74
2023/08/31 12:07:06;;;;;;;6.35;1.30;;;;;;;;;;5008054;28;20305;-73
2023/08/31 12:09:32;;;;;;;6.93;1.35;;;;;;;;;;5011099;28;20243;-73
2023/08/31 12:11:57;;;;;;;6.80;1.40;;;;;;;;;;5024551;28;20190;-73
2023/08/31 12:14:24;;;;;;;7.43;1.30;;;;;;;;;;5031187;28;20186;-74
2023/08/31 12:16:51;;;;;;;5.63;1.35;;;;;;;;;;5020585;28;20186;-72
2023/08/31 12:19:17;;;;;;;5.32;1.40;;;;;;;;;;5031559;28;20705;-74
2023/08/31 12:21:44;;;;;;;3.45;1.20;;;;;;;;;;5017623;28;20248;-73
2023/08/31 12:24:10;;;;;;;4.35;1.23;;;;;;;;;;5007207;28;20198;-75
2023/08/31 12:26:36;;;;;;;5.07;1.02;;;;;;;;;;5035032;28;20233;-74
2023/08/31 12:29:04;;;;;;;5.18;0.90;;;;;;;;;;5012272;28;20558;-74
2023/08/31 12:31:30;;;;;;;4.97;0.95;;;;;;;;;;5016231;28;20202;-72
2023/08/31 12:33:55;;;;;;;7.88;1.65;;;;;;;;;;5026101;28;20195;-73
2023/08/31 12:36:20;;;;;;;9.60;1.70;;;;;;;;;;5023976;28;20194;-77
2023/08/31 12:38:46;;;;;;;7.47;1.40;;;;;;;;;;5034361;28;20658;-77
2023/08/31 12:41:12;;;;;;;2.65;1.10;;;;;;;;;;5038800;28;20186;-81
2023/08/31 12:43:38;;;;;;;3.28;1.10;;;;;;;;;;5033272;28;20190;-79
2023/08/31 12:46:05;;;;;;;1.70;0.70;;;;;;;;;;5008128;28;20229;-77
2023/08/31 12:48:32;;;;;;;5.72;1.10;;;;;;;;;;5029403;28;20190;-78
2023/08/31 12:50:58;;;;;;;3.95;1.08;;;;;;;;;;5019546;28;20186;-78
2023/08/31 12:53:23;;;;;;;5.75;1.20;;;;;;;;;;5013556;28;20203;-76
2023/08/31 12:55:49;;;;;;;3.80;1.40;;;;;;;;;;5031869;28;20228;-75
2023/08/31 12:58:15;;;;;;;4.50;1.42;;;;;;;;;;5026535;28;20238;-77
2023/08/31 13:00:43;;;;;;;4.80;1.55;;;;;;;;;;5028285;28;20190;-76
2023/08/31 13:03:08;;;;;;;4.35;1.50;;;;;;;;;;5032257;28;20221;-73
2023/08/31 13:05:34;;;;;;;7.30;1.98;;;;;;;;;;5028238;28;20673;-72
2023/08/31 13:07:59;;;;;;;4.70;1.48;;;;;;;;;;5028360;28;20369;-72
2023/08/31 13:10:25;;;;;;;8.05;1.80;;;;;;;;;;5031370;28;20197;-75
2023/08/31 13:12:50;;;;;;;4.93;1.20;;;;;;;;;;5019395;28;20230;-74
2023/08/31 13:15:15;;;;;;;9.35;1.40;;;;;;;;;;5025993;28;20185;-73
2023/08/31 13:17:41;;;;;;;3.58;1.55;;;;;;;;;;5022054;28;20348;-73
2023/08/31 13:20:08;;;;;;;3.90;1.30;;;;;;;;;;5025615;28;20216;-74
2023/08/31 13:22:34;;;;;;;6.28;1.30;;;;;;;;;;5007626;28;20217;-75
2023/08/31 13:24:59;;;;;;;6.95;1.52;;;;;;;;;;5020678;28;20598;-75
2023/08/31 13:27:25;;;;;;;7.82;1.52;;;;;;;;;;5012418;28;20280;-80
2023/08/31 13:29:51;;;;;;;2.90;1.10;;;;;;;;;;5033446;28;20194;-77
2023/08/31 13:32:17;;;;;;;7.03;1.27;;;;;;;;;;5015691;28;20191;-78
2023/08/31 13:34:43;;;;;;;5.45;1.42;;;;;;;;;;5020510;28;20337;-76
2023/08/31 13:37:08;;;;;;;6.20;1.42;;;;;;;;;;5030459;28;20649;-75
2023/08/31 13:39:40;;;;;;;8.40;1.70;;;;;;;;;;5020170;28;20202;-75
2023/08/31 13:42:06;;;;;;;4.57;1.15;;;;;;;;;;5036443;28;20186;-76
2023/08/31 13:44:32;;;;;;;4.82;1.20;;;;;;;;;;5024315;28;20225;-76
2023/08/31 13:46:57;;;;;;;5.90;0.90;;;;;;;;;;5014972;28;20269;-74
2023/08/31 13:49:23;;;;;;;5.60;1.23;;;;;;;;;;5044179;28;20241;-78
2023/08/31 13:51:48;;;;;;;4.90;1.08;;;;;;;;;;5038220;28;20582;-78
2023/08/31 13:54:14;;;;;;;8.07;1.30;;;;;;;;;;5021723;28;20193;-77
2023/08/31 13:56:39;;;;;;;5.78;1.73;;;;;;;;;;5035513;28;20187;-78
2023/08/31 13:59:05;;;;;;;3.78;1.20;;;;;;;;;;5018959;28;20194;-75
2023/08/31 14:01:30;;;;;;;5.20;1.20;;;;;;;;;;5033809;28;20594;-73
2023/08/31 14:03:56;;;;;;;6.70;1.45;;;;;;;;;;5030991;28;20191;-72
2023/08/31 14:06:21;;;;;;;7.40;1.27;;;;;;;;;;5030504;28;20751;-71
2023/08/31 14:08:47;;;;;;;8.05;1.70;;;;;;;;;;5034601;28;20265;-71
2023/08/31 14:11:14;;;;;;;5.60;1.20;;;;;;;;;;5017224;28;20676;-71
2023/08/31 14:13:39;;;;;;;5.55;1.67;;;;;;;;;;5033013;28;20201;-72
2023/08/31 14:16:05;;;;;;;2.75;1.27;;;;;;;;;;5038235;28;20197;-72
2023/08/31 14:18:31;;;;;;;2.70;0.63;;;;;;;;;;5011970;28;20252;-72
2023/08/31 14:20:58;;;;;;;5.43;1.20;;;;;;;;;;5013015;28;20186;-71
2023/08/31 14:23:24;;;;;;;5.03;1.13;;;;;;;;;;5021408;28;20281;-71
2023/08/31 14:25:50;;;;;;;6.10;1.23;;;;;;;;;;5035355;28;20304;-72
2023/08/31 14:28:15;;;;;;;8.27;1.23;;;;;;;;;;5030124;28;20197;-72
2023/08/31 14:30:40;;;;;;;4.47;1.23;;;;;;;;;;5033335;28;20268;-73
2023/08/31 14:33:06;;;;;;;4.95;1.20;;;;;;;;;;5028105;28;20205;-73
2023/08/31 14:35:31;;;;;;;8.38;1.60;;;;;;;;;;5033536;28;20201;-73